sensor_id;sensor_type;location;lat;lon;timestamp;P1;durP1;ratioP1;P2;durP2;ratioP2
45618;SDS011;31343;47.520;19.144;2024-01-06T00:01:10;8.40;;;4.25;;
45618;SDS011;31343;47.520;19.144;2024-01-06T00:03:37;12.45;;;5.20;;
45618;SDS011;31343;47.520;19.144;2024-01-06T00:06:03;7.95;;;5.30;;
45618;SDS011;31343;47.520;19.144;2024-01-06T00:08:28;9.27;;;5.18;;
45618;SDS011;31343;47.520;19.144;2024-01-06T00:10:54;7.35;;;4.60;;
45618;SDS011;31343;47.520;19.144;2024-01-06T00:13:20;7.75;;;4.97;;
45618;SDS011;31343;47.520;19.144;2024-01-06T00:15:46;14.32;;;6.18;;
45618;SDS011;31343;47.520;19.144;2024-01-06T00:18:11;7.60;;;5.47;;
45618;SDS011;31343;47.520;19.144;2024-01-06T00:20:37;8.48;;;5.07;;
45618;SDS011;31343;47.520;19.144;2024-01-06T00:23:03;5.82;;;5.18;;
45618;SDS011;31343;47.520;19.144;2024-01-06T00:25:28;6.60;;;4.72;;
45618;SDS011;31343;47.520;19.144;2024-01-06T00:27:54;12.48;;;6.05;;
45618;SDS011;31343;47.520;19.144;2024-01-06T00:30:20;6.80;;;5.03;;
45618;SDS011;31343;47.520;19.144;2024-01-06T00:32:45;7.03;;;4.85;;
45618;SDS011;31343;47.520;19.144;2024-01-06T00:35:12;7.63;;;4.68;;
45618;SDS011;31343;47.520;19.144;2024-01-06T00:37:38;9.65;;;5.05;;
45618;SDS011;31343;47.520;19.144;2024-01-06T00:40:03;13.38;;;5.70;;
45618;SDS011;31343;47.520;19.144;2024-01-06T00:42:30;9.43;;;4.82;;
45618;SDS011;31343;47.520;19.144;2024-01-06T00:44:55;13.48;;;5.18;;
45618;SDS011;31343;47.520;19.144;2024-01-06T00:47:21;10.98;;;6.05;;
45618;SDS011;31343;47.520;19.144;2024-01-06T00:49:49;7.93;;;4.55;;
45618;SDS011;31343;47.520;19.144;2024-01-06T00:52:14;8.88;;;5.88;;
45618;SDS011;31343;47.520;19.144;2024-01-06T00:54:40;13.48;;;5.40;;
45618;SDS011;31343;47.520;19.144;2024-01-06T00:57:06;8.52;;;5.60;;
45618;SDS011;31343;47.520;19.144;2024-01-06T00:59:32;6.40;;;5.03;;
45618;SDS011;31343;47.520;19.144;2024-01-06T01:01:58;9.70;;;5.38;;
45618;SDS011;31343;47.520;19.144;2024-01-06T01:04:24;9.27;;;6.15;;
45618;SDS011;31343;47.520;19.144;2024-01-06T01:06:49;5.97;;;5.20;;
45618;SDS011;31343;47.520;19.144;2024-01-06T01:09:15;10.82;;;6.22;;
45618;SDS011;31343;47.520;19.144;2024-01-06T01:11:41;7.00;;;5.18;;
45618;SDS011;31343;47.520;19.144;2024-01-06T01:14:07;4.85;;;3.95;;
45618;SDS011;31343;47.520;19.144;2024-01-06T01:16:33;12.05;;;4.60;;
45618;SDS011;31343;47.520;19.144;2024-01-06T01:18:58;6.55;;;4.88;;
45618;SDS011;31343;47.520;19.144;2024-01-06T01:21:24;7.13;;;5.38;;
45618;SDS011;31343;47.520;19.144;2024-01-06T01:23:50;9.65;;;5.22;;
45618;SDS011;31343;47.520;19.144;2024-01-06T01:26:15;7.38;;;5.30;;
45618;SDS011;31343;47.520;19.144;2024-01-06T01:28:41;6.75;;;4.32;;
45618;SDS011;31343;47.520;19.144;2024-01-06T01:31:07;10.85;;;5.95;;
45618;SDS011;31343;47.520;19.144;2024-01-06T01:33:33;8.82;;;6.40;;
45618;SDS011;31343;47.520;19.144;2024-01-06T01:35:59;5.90;;;4.70;;
45618;SDS011;31343;47.520;19.144;2024-01-06T01:38:24;9.77;;;4.78;;
45618;SDS011;31343;47.520;19.144;2024-01-06T01:40:50;8.10;;;5.10;;
45618;SDS011;31343;47.520;19.144;2024-01-06T01:43:19;7.30;;;5.00;;
45618;SDS011;31343;47.520;19.144;2024-01-06T01:45:50;9.90;;;5.95;;
45618;SDS011;31343;47.520;19.144;2024-01-06T01:48:18;9.95;;;5.60;;
45618;SDS011;31343;47.520;19.144;2024-01-06T01:50:46;8.90;;;6.28;;
45618;SDS011;31343;47.520;19.144;2024-01-06T01:53:13;8.73;;;6.35;;
45618;SDS011;31343;47.520;19.144;2024-01-06T01:55:40;9.82;;;4.90;;
45618;SDS011;31343;47.520;19.144;2024-01-06T01:58:07;8.52;;;6.07;;
45618;SDS011;31343;47.520;19.144;2024-01-06T02:00:34;9.60;;;5.43;;
45618;SDS011;31343;47.520;19.144;2024-01-06T02:02:59;6.57;;;4.82;;
45618;SDS011;31343;47.520;19.144;2024-01-06T02:05:28;7.60;;;5.78;;
45618;SDS011;31343;47.520;19.144;2024-01-06T02:07:53;5.13;;;4.10;;
45618;SDS011;31343;47.520;19.144;2024-01-06T02:10:19;10.18;;;4.60;;
45618;SDS011;31343;47.520;19.144;2024-01-06T02:12:45;5.55;;;4.32;;
45618;SDS011;31343;47.520;19.144;2024-01-06T02:15:12;9.05;;;6.95;;
45618;SDS011;31343;47.520;19.144;2024-01-06T02:17:38;10.45;;;5.57;;
45618;SDS011;31343;47.520;19.144;2024-01-06T02:20:05;8.25;;;6.07;;
45618;SDS011;31343;47.520;19.144;2024-01-06T02:22:35;9.13;;;5.43;;
45618;SDS011;31343;47.520;19.144;2024-01-06T02:25:02;8.35;;;4.60;;
45618;SDS011;31343;47.520;19.144;2024-01-06T02:27:32;7.20;;;4.43;;
45618;SDS011;31343;47.520;19.144;2024-01-06T02:29:58;7.78;;;4.82;;
45618;SDS011;31343;47.520;19.144;2024-01-06T02:32:24;9.07;;;6.47;;
45618;SDS011;31343;47.520;19.144;2024-01-06T02:34:49;11.35;;;5.93;;
45618;SDS011;31343;47.520;19.144;2024-01-06T02:37:15;6.28;;;4.10;;
45618;SDS011;31343;47.520;19.144;2024-01-06T02:39:41;8.23;;;5.15;;
45618;SDS011;31343;47.520;19.144;2024-01-06T02:42:06;10.10;;;6.07;;
45618;SDS011;31343;47.520;19.144;2024-01-06T02:44:32;9.73;;;5.15;;
45618;SDS011;31343;47.520;19.144;2024-01-06T02:46:57;9.25;;;5.47;;
45618;SDS011;31343;47.520;19.144;2024-01-06T02:49:23;8.57;;;5.00;;
45618;SDS011;31343;47.520;19.144;2024-01-06T02:51:49;8.75;;;4.80;;
45618;SDS011;31343;47.520;19.144;2024-01-06T02:54:14;4.93;;;4.13;;
45618;SDS011;31343;47.520;19.144;2024-01-06T02:56:40;9.63;;;6.25;;
45618;SDS011;31343;47.520;19.144;2024-01-06T02:59:06;18.40;;;5.35;;
45618;SDS011;31343;47.520;19.144;2024-01-06T03:01:31;8.18;;;4.68;;
45618;SDS011;31343;47.520;19.144;2024-01-06T03:03:57;8.30;;;5.95;;
45618;SDS011;31343;47.520;19.144;2024-01-06T03:06:23;7.70;;;4.65;;
45618;SDS011;31343;47.520;19.144;2024-01-06T03:08:49;7.18;;;4.53;;
45618;SDS011;31343;47.520;19.144;2024-01-06T03:11:14;9.48;;;5.10;;
45618;SDS011;31343;47.520;19.144;2024-01-06T03:13:40;7.50;;;4.88;;
45618;SDS011;31343;47.520;19.144;2024-01-06T03:16:06;8.85;;;5.50;;
45618;SDS011;31343;47.520;19.144;2024-01-06T03:18:31;5.82;;;4.57;;
45618;SDS011;31343;47.520;19.144;2024-01-06T03:20:57;13.38;;;5.90;;
45618;SDS011;31343;47.520;19.144;2024-01-06T03:23:23;14.80;;;5.80;;
45618;SDS011;31343;47.520;19.144;2024-01-06T03:25:48;12.98;;;6.40;;
45618;SDS011;31343;47.520;19.144;2024-01-06T03:28:14;6.43;;;4.32;;
45618;SDS011;31343;47.520;19.144;2024-01-06T03:30:39;7.72;;;4.75;;
45618;SDS011;31343;47.520;19.144;2024-01-06T03:33:05;6.32;;;4.90;;
45618;SDS011;31343;47.520;19.144;2024-01-06T03:35:32;6.18;;;4.88;;
45618;SDS011;31343;47.520;19.144;2024-01-06T03:37:58;7.20;;;3.65;;
45618;SDS011;31343;47.520;19.144;2024-01-06T03:40:23;10.30;;;5.00;;
45618;SDS011;31343;47.520;19.144;2024-01-06T03:42:49;5.10;;;4.38;;
45618;SDS011;31343;47.520;19.144;2024-01-06T03:45:16;10.48;;;5.15;;
45618;SDS011;31343;47.520;19.144;2024-01-06T03:47:41;7.88;;;4.63;;
45618;SDS011;31343;47.520;19.144;2024-01-06T03:50:07;8.00;;;4.35;;
45618;SDS011;31343;47.520;19.144;2024-01-06T03:52:33;5.82;;;4.38;;
45618;SDS011;31343;47.520;19.144;2024-01-06T03:54:59;8.68;;;4.43;;
45618;SDS011;31343;47.520;19.144;2024-01-06T03:57:24;4.68;;;3.85;;
45618;SDS011;31343;47.520;19.144;2024-01-06T03:59:50;8.10;;;4.38;;
45618;SDS011;31343;47.520;19.144;2024-01-06T04:02:15;11.07;;;5.72;;
45618;SDS011;31343;47.520;19.144;2024-01-06T04:04:41;6.78;;;4.28;;
45618;SDS011;31343;47.520;19.144;2024-01-06T04:07:07;4.75;;;3.80;;
45618;SDS011;31343;47.520;19.144;2024-01-06T04:09:33;8.55;;;5.45;;
45618;SDS011;31343;47.520;19.144;2024-01-06T04:11:58;3.80;;;3.47;;
45618;SDS011;31343;47.520;19.144;2024-01-06T04:14:25;9.07;;;5.18;;
45618;SDS011;31343;47.520;19.144;2024-01-06T04:16:51;8.07;;;4.72;;
45618;SDS011;31343;47.520;19.144;2024-01-06T04:19:17;7.57;;;4.03;;
45618;SDS011;31343;47.520;19.144;2024-01-06T04:21:45;7.22;;;4.60;;
45618;SDS011;31343;47.520;19.144;2024-01-06T04:24:11;6.50;;;4.35;;
45618;SDS011;31343;47.520;19.144;2024-01-06T04:26:36;7.43;;;4.45;;
45618;SDS011;31343;47.520;19.144;2024-01-06T04:29:02;7.43;;;5.07;;
45618;SDS011;31343;47.520;19.144;2024-01-06T04:31:28;7.00;;;4.60;;
45618;SDS011;31343;47.520;19.144;2024-01-06T04:33:53;11.85;;;4.88;;
45618;SDS011;31343;47.520;19.144;2024-01-06T04:36:19;11.43;;;4.63;;
45618;SDS011;31343;47.520;19.144;2024-01-06T04:38:45;5.35;;;3.92;;
45618;SDS011;31343;47.520;19.144;2024-01-06T04:41:10;6.20;;;5.53;;
45618;SDS011;31343;47.520;19.144;2024-01-06T04:43:36;7.47;;;4.22;;
45618;SDS011;31343;47.520;19.144;2024-01-06T04:46:01;5.82;;;4.10;;
45618;SDS011;31343;47.520;19.144;2024-01-06T04:48:27;4.85;;;4.35;;
45618;SDS011;31343;47.520;19.144;2024-01-06T04:50:53;5.88;;;3.83;;
45618;SDS011;31343;47.520;19.144;2024-01-06T04:53:19;5.85;;;4.15;;
45618;SDS011;31343;47.520;19.144;2024-01-06T04:55:44;8.50;;;4.72;;
45618;SDS011;31343;47.520;19.144;2024-01-06T04:58:10;8.10;;;4.55;;
45618;SDS011;31343;47.520;19.144;2024-01-06T05:00:36;7.20;;;4.60;;
45618;SDS011;31343;47.520;19.144;2024-01-06T05:03:02;8.50;;;4.63;;
45618;SDS011;31343;47.520;19.144;2024-01-06T05:05:27;11.88;;;5.90;;
45618;SDS011;31343;47.520;19.144;2024-01-06T05:07:53;6.47;;;4.90;;
45618;SDS011;31343;47.520;19.144;2024-01-06T05:10:18;9.93;;;5.00;;
45618;SDS011;31343;47.520;19.144;2024-01-06T05:12:44;6.30;;;4.32;;
45618;SDS011;31343;47.520;19.144;2024-01-06T05:15:11;7.15;;;3.55;;
45618;SDS011;31343;47.520;19.144;2024-01-06T05:17:37;7.40;;;4.97;;
45618;SDS011;31343;47.520;19.144;2024-01-06T05:20:03;11.05;;;4.05;;
45618;SDS011;31343;47.520;19.144;2024-01-06T05:22:29;6.28;;;3.45;;
45618;SDS011;31343;47.520;19.144;2024-01-06T05:24:54;5.32;;;3.83;;
45618;SDS011;31343;47.520;19.144;2024-01-06T05:27:20;6.35;;;4.72;;
45618;SDS011;31343;47.520;19.144;2024-01-06T05:29:46;5.80;;;4.70;;
45618;SDS011;31343;47.520;19.144;2024-01-06T05:32:14;5.70;;;4.05;;
45618;SDS011;31343;47.520;19.144;2024-01-06T05:34:40;7.82;;;4.20;;
45618;SDS011;31343;47.520;19.144;2024-01-06T05:37:06;8.23;;;4.68;;
45618;SDS011;31343;47.520;19.144;2024-01-06T05:39:32;8.25;;;5.65;;
45618;SDS011;31343;47.520;19.144;2024-01-06T05:41:57;3.85;;;2.95;;
45618;SDS011;31343;47.520;19.144;2024-01-06T05:44:23;7.88;;;4.22;;
45618;SDS011;31343;47.520;19.144;2024-01-06T05:46:49;5.18;;;4.13;;
45618;SDS011;31343;47.520;19.144;2024-01-06T05:49:16;8.55;;;4.78;;
45618;SDS011;31343;47.520;19.144;2024-01-06T05:51:45;6.53;;;4.25;;
45618;SDS011;31343;47.520;19.144;2024-01-06T05:54:11;5.88;;;4.05;;
45618;SDS011;31343;47.520;19.144;2024-01-06T05:56:37;6.50;;;4.13;;
45618;SDS011;31343;47.520;19.144;2024-01-06T05:59:02;7.35;;;4.85;;
45618;SDS011;31343;47.520;19.144;2024-01-06T06:01:28;6.28;;;4.63;;
45618;SDS011;31343;47.520;19.144;2024-01-06T06:03:54;7.18;;;4.10;;
45618;SDS011;31343;47.520;19.144;2024-01-06T06:06:19;7.53;;;3.13;;
45618;SDS011;31343;47.520;19.144;2024-01-06T06:08:45;4.07;;;3.22;;
45618;SDS011;31343;47.520;19.144;2024-01-06T06:11:11;8.00;;;4.97;;
45618;SDS011;31343;47.520;19.144;2024-01-06T06:13:40;4.05;;;3.45;;
45618;SDS011;31343;47.520;19.144;2024-01-06T06:16:06;8.70;;;3.88;;
45618;SDS011;31343;47.520;19.144;2024-01-06T06:18:34;7.03;;;4.35;;
45618;SDS011;31343;47.520;19.144;2024-01-06T06:21:00;8.57;;;4.85;;
45618;SDS011;31343;47.520;19.144;2024-01-06T06:23:26;5.68;;;4.18;;
45618;SDS011;31343;47.520;19.144;2024-01-06T06:25:53;4.88;;;3.10;;
45618;SDS011;31343;47.520;19.144;2024-01-06T06:28:19;15.13;;;6.95;;
45618;SDS011;31343;47.520;19.144;2024-01-06T06:30:45;7.43;;;3.17;;
45618;SDS011;31343;47.520;19.144;2024-01-06T06:33:10;7.65;;;4.53;;
45618;SDS011;31343;47.520;19.144;2024-01-06T06:35:36;6.93;;;3.90;;
45618;SDS011;31343;47.520;19.144;2024-01-06T06:38:02;8.52;;;5.47;;
45618;SDS011;31343;47.520;19.144;2024-01-06T06:40:27;9.55;;;5.15;;
45618;SDS011;31343;47.520;19.144;2024-01-06T06:42:54;6.25;;;3.78;;
45618;SDS011;31343;47.520;19.144;2024-01-06T06:45:19;6.05;;;4.20;;
45618;SDS011;31343;47.520;19.144;2024-01-06T06:47:47;7.50;;;3.70;;
45618;SDS011;31343;47.520;19.144;2024-01-06T06:50:15;5.43;;;4.10;;
45618;SDS011;31343;47.520;19.144;2024-01-06T06:52:41;6.22;;;4.47;;
45618;SDS011;31343;47.520;19.144;2024-01-06T06:55:07;6.50;;;5.10;;
45618;SDS011;31343;47.520;19.144;2024-01-06T06:57:33;6.90;;;3.45;;
45618;SDS011;31343;47.520;19.144;2024-01-06T06:59:59;9.90;;;4.30;;
45618;SDS011;31343;47.520;19.144;2024-01-06T07:02:25;5.40;;;4.28;;
45618;SDS011;31343;47.520;19.144;2024-01-06T07:04:51;6.68;;;4.13;;
45618;SDS011;31343;47.520;19.144;2024-01-06T07:07:17;6.10;;;4.28;;
45618;SDS011;31343;47.520;19.144;2024-01-06T07:09:42;6.38;;;4.10;;
45618;SDS011;31343;47.520;19.144;2024-01-06T07:12:08;7.57;;;4.43;;
45618;SDS011;31343;47.520;19.144;2024-01-06T07:14:34;5.43;;;4.30;;
45618;SDS011;31343;47.520;19.144;2024-01-06T07:16:59;8.18;;;4.80;;
45618;SDS011;31343;47.520;19.144;2024-01-06T07:19:25;7.57;;;5.18;;
45618;SDS011;31343;47.520;19.144;2024-01-06T07:21:50;7.88;;;3.78;;
45618;SDS011;31343;47.520;19.144;2024-01-06T07:24:16;8.07;;;3.42;;
45618;SDS011;31343;47.520;19.144;2024-01-06T07:26:42;5.57;;;3.67;;
45618;SDS011;31343;47.520;19.144;2024-01-06T07:29:08;7.65;;;4.22;;
45618;SDS011;31343;47.520;19.144;2024-01-06T07:31:34;6.28;;;3.22;;
45618;SDS011;31343;47.520;19.144;2024-01-06T07:34:00;5.32;;;3.17;;
45618;SDS011;31343;47.520;19.144;2024-01-06T07:36:25;5.05;;;3.67;;
45618;SDS011;31343;47.520;19.144;2024-01-06T07:38:51;7.13;;;2.95;;
45618;SDS011;31343;47.520;19.144;2024-01-06T07:41:17;5.10;;;3.70;;
45618;SDS011;31343;47.520;19.144;2024-01-06T07:43:43;4.50;;;3.42;;
45618;SDS011;31343;47.520;19.144;2024-01-06T07:46:09;4.95;;;4.00;;
45618;SDS011;31343;47.520;19.144;2024-01-06T07:48:35;3.63;;;3.10;;
45618;SDS011;31343;47.520;19.144;2024-01-06T07:51:02;6.43;;;4.22;;
45618;SDS011;31343;47.520;19.144;2024-01-06T07:53:28;5.25;;;4.25;;
45618;SDS011;31343;47.520;19.144;2024-01-06T07:55:54;5.90;;;3.45;;
45618;SDS011;31343;47.520;19.144;2024-01-06T07:58:20;7.35;;;3.80;;
45618;SDS011;31343;47.520;19.144;2024-01-06T08:00:46;4.82;;;4.05;;
45618;SDS011;31343;47.520;19.144;2024-01-06T08:03:13;5.93;;;3.55;;
45618;SDS011;31343;47.520;19.144;2024-01-06T08:05:38;6.32;;;4.05;;
45618;SDS011;31343;47.520;19.144;2024-01-06T08:08:05;3.83;;;3.47;;
45618;SDS011;31343;47.520;19.144;2024-01-06T08:10:31;3.13;;;2.75;;
45618;SDS011;31343;47.520;19.144;2024-01-06T08:12:57;4.45;;;2.75;;
45618;SDS011;31343;47.520;19.144;2024-01-06T08:15:23;4.80;;;3.05;;
45618;SDS011;31343;47.520;19.144;2024-01-06T08:17:48;4.82;;;3.03;;
45618;SDS011;31343;47.520;19.144;2024-01-06T08:20:14;4.93;;;2.85;;
45618;SDS011;31343;47.520;19.144;2024-01-06T08:22:39;4.95;;;3.95;;
45618;SDS011;31343;47.520;19.144;2024-01-06T08:25:05;4.50;;;2.92;;
45618;SDS011;31343;47.520;19.144;2024-01-06T08:27:33;7.38;;;2.47;;
45618;SDS011;31343;47.520;19.144;2024-01-06T08:29:59;3.90;;;2.38;;
45618;SDS011;31343;47.520;19.144;2024-01-06T08:32:25;4.13;;;2.50;;
45618;SDS011;31343;47.520;19.144;2024-01-06T08:34:51;6.18;;;3.95;;
45618;SDS011;31343;47.520;19.144;2024-01-06T08:37:17;5.45;;;3.13;;
45618;SDS011;31343;47.520;19.144;2024-01-06T08:39:43;5.43;;;3.00;;
45618;SDS011;31343;47.520;19.144;2024-01-06T08:42:08;6.93;;;2.83;;
45618;SDS011;31343;47.520;19.144;2024-01-06T08:44:34;3.10;;;1.92;;
45618;SDS011;31343;47.520;19.144;2024-01-06T08:47:00;5.15;;;2.80;;
45618;SDS011;31343;47.520;19.144;2024-01-06T08:49:25;6.18;;;3.33;;
45618;SDS011;31343;47.520;19.144;2024-01-06T08:51:51;4.20;;;2.70;;
45618;SDS011;31343;47.520;19.144;2024-01-06T08:54:16;3.80;;;2.95;;
45618;SDS011;31343;47.520;19.144;2024-01-06T08:56:42;5.88;;;2.58;;
45618;SDS011;31343;47.520;19.144;2024-01-06T08:59:08;4.13;;;2.72;;
45618;SDS011;31343;47.520;19.144;2024-01-06T09:01:34;5.85;;;2.58;;
45618;SDS011;31343;47.520;19.144;2024-01-06T09:04:01;3.40;;;2.22;;
45618;SDS011;31343;47.520;19.144;2024-01-06T09:06:27;4.13;;;3.25;;
45618;SDS011;31343;47.520;19.144;2024-01-06T09:08:53;5.55;;;2.30;;
45618;SDS011;31343;47.520;19.144;2024-01-06T09:11:19;4.57;;;2.63;;
45618;SDS011;31343;47.520;19.144;2024-01-06T09:13:44;3.28;;;2.10;;
45618;SDS011;31343;47.520;19.144;2024-01-06T09:16:10;4.53;;;3.72;;
45618;SDS011;31343;47.520;19.144;2024-01-06T09:18:36;5.05;;;3.10;;
45618;SDS011;31343;47.520;19.144;2024-01-06T09:21:02;3.90;;;2.85;;
45618;SDS011;31343;47.520;19.144;2024-01-06T09:23:28;4.60;;;3.50;;
45618;SDS011;31343;47.520;19.144;2024-01-06T09:25:54;3.65;;;2.92;;
45618;SDS011;31343;47.520;19.144;2024-01-06T09:28:20;5.53;;;3.33;;
45618;SDS011;31343;47.520;19.144;2024-01-06T09:30:48;4.18;;;2.58;;
45618;SDS011;31343;47.520;19.144;2024-01-06T09:33:14;3.92;;;2.67;;
45618;SDS011;31343;47.520;19.144;2024-01-06T09:35:42;4.65;;;2.95;;
45618;SDS011;31343;47.520;19.144;2024-01-06T09:38:09;4.35;;;2.50;;
45618;SDS011;31343;47.520;19.144;2024-01-06T09:40:35;3.60;;;2.58;;
45618;SDS011;31343;47.520;19.144;2024-01-06T09:43:08;4.38;;;2.67;;
45618;SDS011;31343;47.520;19.144;2024-01-06T09:45:34;5.35;;;2.70;;
45618;SDS011;31343;47.520;19.144;2024-01-06T09:48:00;4.88;;;3.60;;
45618;SDS011;31343;47.520;19.144;2024-01-06T09:50:35;3.42;;;2.53;;
45618;SDS011;31343;47.520;19.144;2024-01-06T09:53:00;4.85;;;3.33;;
45618;SDS011;31343;47.520;19.144;2024-01-06T09:55:30;3.53;;;2.88;;
45618;SDS011;31343;47.520;19.144;2024-01-06T09:57:56;5.45;;;2.88;;
45618;SDS011;31343;47.520;19.144;2024-01-06T10:00:22;3.33;;;2.00;;
45618;SDS011;31343;47.520;19.144;2024-01-06T10:02:48;7.63;;;2.90;;
45618;SDS011;31343;47.520;19.144;2024-01-06T10:05:17;4.55;;;2.88;;
45618;SDS011;31343;47.520;19.144;2024-01-06T10:07:47;3.53;;;2.55;;
45618;SDS011;31343;47.520;19.144;2024-01-06T10:10:14;5.95;;;2.92;;
45618;SDS011;31343;47.520;19.144;2024-01-06T10:12:41;4.40;;;3.38;;
45618;SDS011;31343;47.520;19.144;2024-01-06T10:15:08;6.30;;;3.05;;
45618;SDS011;31343;47.520;19.144;2024-01-06T10:17:38;3.13;;;2.53;;
45618;SDS011;31343;47.520;19.144;2024-01-06T10:20:08;4.28;;;2.88;;
45618;SDS011;31343;47.520;19.144;2024-01-06T10:22:38;4.35;;;2.92;;
45618;SDS011;31343;47.520;19.144;2024-01-06T10:25:07;3.25;;;2.25;;
45618;SDS011;31343;47.520;19.144;2024-01-06T10:27:37;5.57;;;2.35;;
45618;SDS011;31343;47.520;19.144;2024-01-06T10:30:04;4.65;;;2.72;;
45618;SDS011;31343;47.520;19.144;2024-01-06T10:32:34;4.75;;;2.72;;
45618;SDS011;31343;47.520;19.144;2024-01-06T10:35:01;4.88;;;2.78;;
45618;SDS011;31343;47.520;19.144;2024-01-06T10:37:28;7.68;;;3.05;;
45618;SDS011;31343;47.520;19.144;2024-01-06T10:40:13;5.55;;;4.05;;
45618;SDS011;31343;47.520;19.144;2024-01-06T10:42:42;4.65;;;2.60;;
45618;SDS011;31343;47.520;19.144;2024-01-06T10:45:09;5.35;;;2.85;;
45618;SDS011;31343;47.520;19.144;2024-01-06T10:47:37;4.70;;;3.13;;
45618;SDS011;31343;47.520;19.144;2024-01-06T10:50:07;5.05;;;3.00;;
45618;SDS011;31343;47.520;19.144;2024-01-06T10:52:33;5.30;;;3.20;;
45618;SDS011;31343;47.520;19.144;2024-01-06T10:55:00;6.45;;;3.22;;
45618;SDS011;31343;47.520;19.144;2024-01-06T10:57:27;5.25;;;3.85;;
45618;SDS011;31343;47.520;19.144;2024-01-06T10:59:57;3.00;;;2.38;;
45618;SDS011;31343;47.520;19.144;2024-01-06T11:02:24;5.63;;;3.15;;
45618;SDS011;31343;47.520;19.144;2024-01-06T11:04:50;5.57;;;3.22;;
45618;SDS011;31343;47.520;19.144;2024-01-06T11:07:18;4.72;;;2.75;;
45618;SDS011;31343;47.520;19.144;2024-01-06T11:10:03;5.72;;;4.15;;
45618;SDS011;31343;47.520;19.144;2024-01-06T11:12:33;3.53;;;2.42;;
45618;SDS011;31343;47.520;19.144;2024-01-06T11:14:59;6.75;;;4.07;;
45618;SDS011;31343;47.520;19.144;2024-01-06T11:20:18;14.55;;;2.92;;
45618;SDS011;31343;47.520;19.144;2024-01-06T11:22:48;5.15;;;3.13;;
45618;SDS011;31343;47.520;19.144;2024-01-06T11:25:15;6.07;;;3.15;;
45618;SDS011;31343;47.520;19.144;2024-01-06T11:27:44;3.03;;;2.30;;
45618;SDS011;31343;47.520;19.144;2024-01-06T11:30:24;5.03;;;3.45;;
45618;SDS011;31343;47.520;19.144;2024-01-06T11:32:51;6.53;;;2.83;;
45618;SDS011;31343;47.520;19.144;2024-01-06T11:35:19;5.07;;;3.55;;
45618;SDS011;31343;47.520;19.144;2024-01-06T11:42:41;5.80;;;2.95;;
45618;SDS011;31343;47.520;19.144;2024-01-06T11:45:07;3.35;;;2.90;;
45618;SDS011;31343;47.520;19.144;2024-01-06T11:47:34;4.97;;;4.05;;
45618;SDS011;31343;47.520;19.144;2024-01-06T11:50:00;5.32;;;3.50;;
45618;SDS011;31343;47.520;19.144;2024-01-06T11:52:30;6.68;;;3.92;;
45618;SDS011;31343;47.520;19.144;2024-01-06T11:54:57;4.32;;;2.72;;
45618;SDS011;31343;47.520;19.144;2024-01-06T11:57:27;4.28;;;2.95;;
45618;SDS011;31343;47.520;19.144;2024-01-06T11:59:54;5.90;;;3.47;;
45618;SDS011;31343;47.520;19.144;2024-01-06T12:02:20;6.20;;;3.83;;
45618;SDS011;31343;47.520;19.144;2024-01-06T12:04:49;4.30;;;3.20;;
45618;SDS011;31343;47.520;19.144;2024-01-06T12:07:19;5.63;;;2.78;;
45618;SDS011;31343;47.520;19.144;2024-01-06T12:09:47;6.35;;;4.05;;
45618;SDS011;31343;47.520;19.144;2024-01-06T12:12:16;6.22;;;3.95;;
45618;SDS011;31343;47.520;19.144;2024-01-06T12:14:43;5.93;;;3.60;;
45618;SDS011;31343;47.520;19.144;2024-01-06T12:17:10;6.25;;;3.33;;
45618;SDS011;31343;47.520;19.144;2024-01-06T12:19:39;5.28;;;3.28;;
45618;SDS011;31343;47.520;19.144;2024-01-06T12:22:11;6.45;;;4.10;;
45618;SDS011;31343;47.520;19.144;2024-01-06T12:24:38;5.05;;;3.80;;
45618;SDS011;31343;47.520;19.144;2024-01-06T12:27:06;7.85;;;4.18;;
45618;SDS011;31343;47.520;19.144;2024-01-06T12:29:37;5.00;;;3.42;;
45618;SDS011;31343;47.520;19.144;2024-01-06T12:32:05;6.25;;;3.88;;
45618;SDS011;31343;47.520;19.144;2024-01-06T12:34:33;5.28;;;3.83;;
45618;SDS011;31343;47.520;19.144;2024-01-06T12:37:00;6.85;;;3.90;;
45618;SDS011;31343;47.520;19.144;2024-01-06T12:39:27;6.80;;;3.15;;
45618;SDS011;31343;47.520;19.144;2024-01-06T12:41:54;5.90;;;3.05;;
45618;SDS011;31343;47.520;19.144;2024-01-06T12:44:21;5.65;;;3.40;;
45618;SDS011;31343;47.520;19.144;2024-01-06T12:46:47;5.80;;;3.22;;
45618;SDS011;31343;47.520;19.144;2024-01-06T12:49:13;5.57;;;3.15;;
45618;SDS011;31343;47.520;19.144;2024-01-06T12:51:38;3.30;;;2.08;;
45618;SDS011;31343;47.520;19.144;2024-01-06T12:54:04;4.18;;;3.22;;
45618;SDS011;31343;47.520;19.144;2024-01-06T12:56:30;7.63;;;4.20;;
45618;SDS011;31343;47.520;19.144;2024-01-06T12:58:56;5.40;;;3.40;;
45618;SDS011;31343;47.520;19.144;2024-01-06T13:01:22;6.18;;;3.70;;
45618;SDS011;31343;47.520;19.144;2024-01-06T13:03:48;6.22;;;3.08;;
45618;SDS011;31343;47.520;19.144;2024-01-06T13:06:14;2.72;;;2.53;;
45618;SDS011;31343;47.520;19.144;2024-01-06T13:08:41;2.95;;;2.42;;
45618;SDS011;31343;47.520;19.144;2024-01-06T13:11:07;4.93;;;3.03;;
45618;SDS011;31343;47.520;19.144;2024-01-06T13:13:34;4.20;;;3.45;;
45618;SDS011;31343;47.520;19.144;2024-01-06T13:15:59;3.22;;;2.90;;
45618;SDS011;31343;47.520;19.144;2024-01-06T13:18:28;5.40;;;3.38;;
45618;SDS011;31343;47.520;19.144;2024-01-06T13:20:54;3.70;;;2.97;;
45618;SDS011;31343;47.520;19.144;2024-01-06T13:23:20;3.13;;;2.42;;
45618;SDS011;31343;47.520;19.144;2024-01-06T13:25:46;6.43;;;3.55;;
45618;SDS011;31343;47.520;19.144;2024-01-06T13:28:12;3.10;;;2.40;;
45618;SDS011;31343;47.520;19.144;2024-01-06T13:30:37;5.45;;;3.33;;
45618;SDS011;31343;47.520;19.144;2024-01-06T13:33:07;4.68;;;2.78;;
45618;SDS011;31343;47.520;19.144;2024-01-06T13:35:34;6.90;;;3.42;;
45618;SDS011;31343;47.520;19.144;2024-01-06T13:38:01;6.30;;;3.15;;
45618;SDS011;31343;47.520;19.144;2024-01-06T13:40:29;7.03;;;3.97;;
45618;SDS011;31343;47.520;19.144;2024-01-06T13:42:56;6.65;;;3.58;;
45618;SDS011;31343;47.520;19.144;2024-01-06T13:45:22;3.60;;;2.78;;
45618;SDS011;31343;47.520;19.144;2024-01-06T13:47:48;6.55;;;3.15;;
45618;SDS011;31343;47.520;19.144;2024-01-06T13:50:18;5.35;;;3.72;;
45618;SDS011;31343;47.520;19.144;2024-01-06T13:52:44;4.35;;;2.72;;
45618;SDS011;31343;47.520;19.144;2024-01-06T13:55:10;5.45;;;3.00;;
45618;SDS011;31343;47.520;19.144;2024-01-06T13:57:37;7.10;;;4.18;;
45618;SDS011;31343;47.520;19.144;2024-01-06T14:02:33;4.93;;;3.70;;
45618;SDS011;31343;47.520;19.144;2024-01-06T14:04:59;9.07;;;4.82;;
45618;SDS011;31343;47.520;19.144;2024-01-06T14:07:24;5.00;;;3.53;;
45618;SDS011;31343;47.520;19.144;2024-01-06T14:09:51;6.65;;;3.55;;
45618;SDS011;31343;47.520;19.144;2024-01-06T14:12:17;3.92;;;3.00;;
45618;SDS011;31343;47.520;19.144;2024-01-06T14:14:46;4.53;;;3.10;;
45618;SDS011;31343;47.520;19.144;2024-01-06T14:17:11;5.00;;;3.42;;
45618;SDS011;31343;47.520;19.144;2024-01-06T14:19:37;8.57;;;5.03;;
45618;SDS011;31343;47.520;19.144;2024-01-06T14:22:03;5.55;;;3.85;;
45618;SDS011;31343;47.520;19.144;2024-01-06T14:24:30;4.80;;;3.60;;
45618;SDS011;31343;47.520;19.144;2024-01-06T14:26:56;5.78;;;3.97;;
45618;SDS011;31343;47.520;19.144;2024-01-06T14:29:22;5.43;;;3.60;;
45618;SDS011;31343;47.520;19.144;2024-01-06T14:31:48;7.30;;;3.75;;
45618;SDS011;31343;47.520;19.144;2024-01-06T14:34:14;7.18;;;4.10;;
45618;SDS011;31343;47.520;19.144;2024-01-06T14:36:40;6.25;;;3.92;;
45618;SDS011;31343;47.520;19.144;2024-01-06T14:39:13;7.63;;;4.25;;